createdAt,value
2018-04-30T00:00:47.460Z,14.10
2018-04-30T00:03:14.940Z,14.00
2018-04-30T00:05:43.202Z,14.10
2018-04-30T00:08:10.660Z,14.10
2018-04-30T00:10:38.131Z,14.00
2018-04-30T00:13:06.371Z,14.00
2018-04-30T00:15:33.866Z,14.00
2018-04-30T00:18:02.122Z,13.90
2018-04-30T00:20:30.344Z,13.90
2018-04-30T00:22:57.832Z,13.90
2018-04-30T00:25:25.319Z,13.90
2018-04-30T00:27:53.565Z,13.80
2018-04-30T00:30:21.220Z,13.80
2018-04-30T00:32:48.695Z,13.90
2018-04-30T00:35:16.178Z,13.90
2018-04-30T00:37:44.412Z,13.90
2018-04-30T00:40:11.889Z,13.90
2018-04-30T00:42:39.376Z,14.00
2018-04-30T00:45:06.840Z,14.10
2018-04-30T00:47:34.338Z,14.10
2018-04-30T00:50:01.923Z,14.10
2018-04-30T00:52:29.390Z,14.10
2018-04-30T00:55:01.674Z,14.10
2018-04-30T00:57:29.142Z,14.00
2018-04-30T00:59:56.623Z,13.90
2018-04-30T01:02:24.088Z,13.80
2018-04-30T01:04:51.543Z,13.80
2018-04-30T01:07:19.020Z,13.70
2018-04-30T01:09:46.507Z,13.80
2018-04-30T01:12:36.286Z,13.50
2018-04-30T01:15:03.830Z,13.60
2018-04-30T01:17:31.324Z,13.50
2018-04-30T01:19:58.822Z,13.40
2018-04-30T01:22:26.282Z,13.40
2018-04-30T01:24:53.967Z,13.40
2018-04-30T01:27:21.451Z,13.40
2018-04-30T01:29:48.935Z,13.40
2018-04-30T01:32:16.403Z,13.50
2018-04-30T01:34:44.357Z,13.50
2018-04-30T01:37:11.841Z,13.50
2018-04-30T01:39:39.312Z,13.50
2018-04-30T01:42:06.861Z,13.40
2018-04-30T01:44:34.296Z,13.50
2018-04-30T01:47:01.763Z,13.60
2018-04-30T01:49:29.260Z,13.40
2018-04-30T01:51:56.721Z,13.50
2018-04-30T01:54:24.215Z,13.40
2018-04-30T01:56:51.676Z,13.40
2018-04-30T01:59:19.154Z,13.50
2018-04-30T02:01:46.624Z,13.40
2018-04-30T02:04:14.102Z,13.40
2018-04-30T02:06:41.570Z,13.40
2018-04-30T02:09:09.041Z,13.30
2018-04-30T02:11:36.518Z,13.30
2018-04-30T02:14:04.004Z,13.10
2018-04-30T02:16:31.463Z,13.10
2018-04-30T02:18:58.930Z,13.10
2018-04-30T02:21:26.457Z,13.00
2018-04-30T02:23:53.924Z,12.90
2018-04-30T02:26:21.459Z,12.90
2018-04-30T02:28:48.909Z,12.90
2018-04-30T02:31:16.404Z,12.60
2018-04-30T02:33:44.049Z,12.70
2018-04-30T02:36:11.361Z,12.60
2018-04-30T02:38:38.849Z,12.50
2018-04-30T02:41:06.334Z,12.40
2018-04-30T02:43:33.811Z,12.30
2018-04-30T02:46:01.301Z,12.30
2018-04-30T02:48:29.704Z,12.30
2018-04-30T02:50:57.197Z,12.20
2018-04-30T02:53:24.684Z,12.20
2018-04-30T02:55:52.935Z,12.10
2018-04-30T02:58:20.442Z,12.10
2018-04-30T03:00:47.916Z,12.00
2018-04-30T03:03:15.445Z,11.90
2018-04-30T03:05:42.932Z,11.80
2018-04-30T03:08:10.454Z,11.70
2018-04-30T03:10:38.693Z,11.60
2018-04-30T03:13:06.157Z,11.60
2018-04-30T03:15:33.638Z,11.60
2018-04-30T03:18:01.103Z,11.50
2018-04-30T03:20:29.344Z,11.30
2018-04-30T03:22:56.805Z,11.30
2018-04-30T03:25:24.267Z,11.30
2018-04-30T03:27:51.761Z,11.20
2018-04-30T03:30:20.000Z,11.10
2018-04-30T03:32:47.470Z,11.10
2018-04-30T03:35:15.700Z,11.10
2018-04-30T03:37:43.154Z,11.30
2018-04-30T03:40:10.661Z,11.10
2018-04-30T03:42:38.116Z,11.10
2018-04-30T03:45:06.378Z,10.90
2018-04-30T03:47:33.839Z,10.90
2018-04-30T03:50:01.314Z,10.90
2018-04-30T03:52:28.800Z,10.90
2018-04-30T03:54:56.290Z,10.90
2018-04-30T03:57:23.797Z,10.90
2018-04-30T03:59:51.252Z,10.90
2018-04-30T04:02:30.602Z,10.80
2018-04-30T04:05:09.848Z,10.80
2018-04-30T04:07:37.345Z,10.80
2018-04-30T04:10:04.797Z,10.80
2018-04-30T04:12:32.307Z,10.70
2018-04-30T04:14:59.794Z,10.70
2018-04-30T04:17:27.251Z,10.60
2018-04-30T04:19:54.738Z,10.60
2018-04-30T04:22:22.288Z,10.50
2018-04-30T04:24:49.750Z,10.60
2018-04-30T04:27:17.238Z,10.50
2018-04-30T04:29:45.442Z,10.50
2018-04-30T04:32:12.913Z,10.50
2018-04-30T04:34:40.374Z,10.50
2018-04-30T04:37:07.852Z,10.50
2018-04-30T04:39:35.355Z,10.50
2018-04-30T04:42:02.844Z,10.60
2018-04-30T04:44:30.331Z,10.50
2018-04-30T04:46:57.809Z,10.50
2018-04-30T04:49:26.071Z,10.40
2018-04-30T04:51:53.552Z,10.40
2018-04-30T04:54:21.025Z,10.50
2018-04-30T04:56:48.538Z,10.40
2018-04-30T04:59:16.006Z,10.50
2018-04-30T05:01:43.503Z,10.40
2018-04-30T05:04:10.987Z,10.50
2018-04-30T05:06:38.455Z,10.40
2018-04-30T05:09:05.941Z,10.40
2018-04-30T05:11:34.186Z,10.50
2018-04-30T05:14:01.648Z,10.50
2018-04-30T05:16:29.125Z,10.50
2018-04-30T05:18:56.634Z,10.50
2018-04-30T05:21:24.119Z,10.50
2018-04-30T05:23:52.130Z,10.50
2018-04-30T05:26:19.637Z,10.40
2018-04-30T05:28:47.161Z,10.30
2018-04-30T05:31:14.650Z,10.30
2018-04-30T05:33:42.149Z,10.30
2018-04-30T05:36:10.407Z,10.30
2018-04-30T05:38:37.894Z,10.30
2018-04-30T05:41:05.372Z,10.30
2018-04-30T05:43:32.852Z,10.40
2018-04-30T05:46:00.340Z,10.40
2018-04-30T05:48:27.811Z,10.30
2018-04-30T05:50:56.062Z,10.30
2018-04-30T05:53:23.550Z,10.30
2018-04-30T05:55:51.797Z,10.20
2018-04-30T05:58:19.317Z,10.30
2018-04-30T06:00:46.778Z,10.30
2018-04-30T06:03:14.357Z,10.20
2018-04-30T06:05:41.866Z,10.20
2018-04-30T06:08:09.378Z,10.10
2018-04-30T06:10:37.846Z,10.10
2018-04-30T06:13:05.923Z,10.10
2018-04-30T06:15:33.410Z,9.90
2018-04-30T06:18:00.954Z,9.80
2018-04-30T06:20:28.438Z,9.80
2018-04-30T06:23:00.588Z,10.10
2018-04-30T06:25:28.289Z,10.10
2018-04-30T06:27:55.769Z,10.30
2018-04-30T06:30:23.246Z,10.30
2018-04-30T06:32:50.711Z,10.40
2018-04-30T06:35:18.237Z,10.20
2018-04-30T06:37:45.699Z,10.20
2018-04-30T06:40:13.167Z,10.10
2018-04-30T06:42:40.673Z,10.10
2018-04-30T06:45:08.148Z,10.20
2018-04-30T06:47:35.661Z,10.40
2018-04-30T06:50:03.130Z,10.20
2018-04-30T06:52:30.614Z,10.20
2018-04-30T06:54:58.110Z,10.20
2018-04-30T06:57:25.579Z,10.30
2018-04-30T06:59:53.069Z,10.30
2018-04-30T07:02:20.543Z,10.20
2018-04-30T07:04:48.081Z,10.10
2018-04-30T07:07:15.598Z,10.00
2018-04-30T07:09:43.330Z,10.10
2018-04-30T07:12:10.612Z,10.10
2018-04-30T07:14:38.854Z,10.20
2018-04-30T07:17:07.260Z,10.20
2018-04-30T07:19:34.812Z,10.20
2018-04-30T07:22:02.316Z,10.10
2018-04-30T07:24:29.805Z,10.00
2018-04-30T07:26:58.187Z,10.10
2018-04-30T07:29:25.664Z,10.10
2018-04-30T07:31:53.166Z,10.00
2018-04-30T07:34:20.665Z,10.00
2018-04-30T07:36:48.155Z,10.10
2018-04-30T07:39:15.661Z,10.20
2018-04-30T07:41:43.145Z,10.30
2018-04-30T07:44:10.638Z,10.40
2018-04-30T07:46:38.109Z,10.60
2018-04-30T07:49:05.591Z,10.70
2018-04-30T07:51:33.080Z,10.90
2018-04-30T07:54:00.554Z,11.50
2018-04-30T07:56:28.041Z,12.10
2018-04-30T07:58:55.499Z,11.60
2018-04-30T08:01:23.002Z,11.90
2018-04-30T08:03:50.486Z,11.70
2018-04-30T08:06:18.725Z,11.20
2018-04-30T08:08:46.202Z,11.20
2018-04-30T08:11:13.664Z,11.00
2018-04-30T08:13:41.151Z,10.90
2018-04-30T08:16:08.634Z,10.90
2018-04-30T08:18:36.100Z,10.90
2018-04-30T08:21:03.573Z,10.90
2018-04-30T08:23:31.822Z,11.20
2018-04-30T08:25:59.318Z,11.10
2018-04-30T08:28:26.834Z,11.30
2018-04-30T08:30:54.309Z,11.20
2018-04-30T08:33:22.613Z,11.10
2018-04-30T08:35:50.087Z,11.00
2018-04-30T08:38:17.590Z,11.00
2018-04-30T08:40:45.073Z,10.90
2018-04-30T08:43:12.554Z,10.80
2018-04-30T08:45:40.044Z,10.70
2018-04-30T08:48:07.553Z,10.60
2018-04-30T08:50:35.091Z,10.70
2018-04-30T08:53:02.605Z,10.80
2018-04-30T08:55:30.094Z,10.80
2018-04-30T08:57:57.607Z,11.00
2018-04-30T09:00:25.144Z,11.20
2018-04-30T09:02:52.588Z,11.00
2018-04-30T09:05:20.081Z,10.90
2018-04-30T09:07:47.585Z,11.00
2018-04-30T09:10:15.068Z,11.10
2018-04-30T09:12:42.532Z,11.30
2018-04-30T09:15:10.026Z,11.30
2018-04-30T09:17:37.516Z,11.30
2018-04-30T09:20:04.984Z,11.10
2018-04-30T09:22:33.255Z,10.80
2018-04-30T09:25:00.733Z,11.00
2018-04-30T09:27:29.003Z,11.10
2018-04-30T09:29:57.261Z,11.30
2018-04-30T09:32:24.735Z,11.30
2018-04-30T09:34:53.033Z,11.40
2018-04-30T09:37:21.282Z,11.40
2018-04-30T09:39:49.545Z,11.60
2018-04-30T09:42:17.046Z,11.60
2018-04-30T09:44:44.539Z,11.50
2018-04-30T09:47:12.061Z,11.90
2018-04-30T09:49:39.570Z,12.00
2018-04-30T09:52:07.065Z,12.30
2018-04-30T09:54:34.573Z,12.30
2018-04-30T09:57:02.035Z,12.30
2018-04-30T09:59:29.532Z,12.20
2018-04-30T10:01:57.780Z,12.60
2018-04-30T10:04:25.251Z,12.60
2018-04-30T10:06:53.506Z,13.10
2018-04-30T10:09:21.006Z,13.10
2018-04-30T10:11:48.490Z,13.10
2018-04-30T10:14:16.002Z,13.50
2018-04-30T10:16:44.280Z,12.90
2018-04-30T10:19:12.569Z,13.10
2018-04-30T10:21:40.826Z,12.80
2018-04-30T10:24:09.103Z,12.60
2018-04-30T10:26:37.338Z,12.40
2018-04-30T10:29:04.891Z,12.40
2018-04-30T10:31:32.411Z,12.30
2018-04-30T10:34:00.656Z,13.40
2018-04-30T10:36:28.138Z,13.40
2018-04-30T10:38:56.377Z,13.60
2018-04-30T10:41:23.883Z,13.60
2018-04-30T10:43:51.348Z,13.10
2018-04-30T10:46:18.818Z,13.00
2018-04-30T10:48:46.338Z,13.60
2018-04-30T10:51:14.564Z,13.90
2018-04-30T10:53:42.076Z,13.90
2018-04-30T10:56:09.593Z,13.60
2018-04-30T10:58:37.066Z,13.50
2018-04-30T11:01:04.566Z,13.70
2018-04-30T11:03:32.047Z,14.20
2018-04-30T11:05:59.531Z,13.90
2018-04-30T11:08:27.008Z,13.60
2018-04-30T11:10:54.462Z,13.70
2018-04-30T11:13:21.969Z,13.90
2018-04-30T11:15:49.482Z,13.90
2018-04-30T11:18:17.715Z,13.60
2018-04-30T11:20:45.189Z,13.60
2018-04-30T11:23:12.692Z,13.60
2018-04-30T11:25:40.982Z,14.10
2018-04-30T11:28:08.525Z,14.00
2018-04-30T11:30:35.937Z,14.20
2018-04-30T11:33:03.524Z,14.00
2018-04-30T11:35:31.896Z,14.30
2018-04-30T11:37:59.451Z,14.30
2018-04-30T11:40:26.944Z,14.60
2018-04-30T11:42:54.546Z,14.10
2018-04-30T11:45:22.068Z,14.00
2018-04-30T11:47:49.553Z,13.70
2018-04-30T11:50:17.066Z,13.90
2018-04-30T11:52:45.329Z,14.00
2018-04-30T11:55:12.819Z,14.00
2018-04-30T11:57:40.326Z,13.70
2018-04-30T12:00:07.816Z,13.40
2018-04-30T12:02:35.327Z,13.30
2018-04-30T12:05:07.314Z,13.10
2018-04-30T12:07:42.666Z,13.10
2018-04-30T12:10:17.097Z,13.00
2018-04-30T12:12:54.980Z,12.90
2018-04-30T12:15:22.891Z,12.60
2018-04-30T12:17:50.407Z,12.80
2018-04-30T12:20:18.690Z,12.70
2018-04-30T12:22:46.981Z,12.40
2018-04-30T12:25:14.483Z,12.40
2018-04-30T12:27:41.961Z,12.10
2018-04-30T12:30:11.199Z,12.00
2018-04-30T12:32:38.731Z,12.10
2018-04-30T12:35:06.208Z,12.10
2018-04-30T12:37:33.713Z,12.20
2018-04-30T12:40:01.248Z,12.30
2018-04-30T12:42:28.738Z,12.20
2018-04-30T12:44:56.225Z,12.40
2018-04-30T12:47:23.719Z,12.70
2018-04-30T12:49:51.274Z,13.20
2018-04-30T12:52:18.725Z,13.70
2018-04-30T12:54:46.221Z,13.60
2018-04-30T12:57:13.719Z,13.40
2018-04-30T12:59:41.211Z,13.10
2018-04-30T13:02:08.711Z,13.30
2018-04-30T13:04:36.198Z,13.80
2018-04-30T13:07:04.524Z,15.20
2018-04-30T13:09:32.020Z,15.20
2018-04-30T13:12:00.285Z,13.90
2018-04-30T13:14:27.771Z,13.90
2018-04-30T13:16:55.284Z,13.70
2018-04-30T13:19:22.793Z,13.70
2018-04-30T13:21:50.310Z,13.60
2018-04-30T13:24:17.788Z,13.60
2018-04-30T13:26:45.300Z,13.50
2018-04-30T13:29:12.812Z,13.70
2018-04-30T13:31:41.077Z,14.60
2018-04-30T13:34:08.557Z,14.30
2018-04-30T13:36:36.033Z,14.70
2018-04-30T13:39:03.506Z,14.90
2018-04-30T13:41:30.997Z,15.40
2018-04-30T13:43:58.464Z,16.00
2018-04-30T13:46:25.960Z,15.60
2018-04-30T13:48:53.433Z,15.20
2018-04-30T13:51:20.922Z,14.20
2018-04-30T13:53:48.399Z,13.90
2018-04-30T13:56:15.866Z,14.30
2018-04-30T13:58:43.367Z,14.60
2018-04-30T14:01:10.850Z,14.20
2018-04-30T14:03:38.376Z,14.00
2018-04-30T14:06:05.889Z,13.90
2018-04-30T14:08:33.353Z,13.70
2018-04-30T14:11:00.863Z,13.30
2018-04-30T14:13:28.350Z,13.10
2018-04-30T14:15:55.874Z,13.00
2018-04-30T14:18:24.104Z,12.80
2018-04-30T14:20:52.382Z,12.70
2018-04-30T14:23:19.942Z,12.60
2018-04-30T14:25:47.423Z,12.40
2018-04-30T14:28:14.926Z,12.40
2018-04-30T14:30:42.442Z,12.30
2018-04-30T14:33:09.955Z,11.90
2018-04-30T14:35:37.441Z,11.90
2018-04-30T14:38:04.925Z,12.10
2018-04-30T14:40:32.425Z,12.30
2018-04-30T14:42:59.933Z,12.30
2018-04-30T14:45:27.437Z,12.20
2018-04-30T14:47:54.918Z,12.00
2018-04-30T14:50:23.176Z,10.80
2018-04-30T14:52:50.771Z,10.70
2018-04-30T14:55:18.275Z,10.40
2018-04-30T14:57:45.742Z,11.20
2018-04-30T15:00:13.260Z,11.10
2018-04-30T15:02:40.726Z,11.50
2018-04-30T15:05:08.207Z,12.40
2018-04-30T15:07:35.706Z,13.90
2018-04-30T15:10:03.196Z,14.20
2018-04-30T15:12:30.709Z,14.70
2018-04-30T15:14:58.177Z,15.30
2018-04-30T15:17:26.423Z,15.70
2018-04-30T15:19:53.907Z,15.70
2018-04-30T15:22:22.177Z,15.50
2018-04-30T15:24:50.448Z,15.60
2018-04-30T15:27:18.013Z,15.50
2018-04-30T15:29:45.561Z,14.60
2018-04-30T15:32:13.072Z,14.00
2018-04-30T15:34:40.563Z,14.20
2018-04-30T15:37:08.054Z,15.00
2018-04-30T15:39:36.433Z,15.60
2018-04-30T15:42:04.703Z,15.80
2018-04-30T15:44:32.162Z,15.80
2018-04-30T15:46:59.641Z,16.00
2018-04-30T15:49:27.126Z,15.50
2018-04-30T15:51:54.607Z,15.00
2018-04-30T15:54:22.086Z,14.20
2018-04-30T15:56:49.604Z,15.20
2018-04-30T15:59:17.132Z,14.80
2018-04-30T16:01:44.667Z,13.70
2018-04-30T16:04:12.922Z,13.10
2018-04-30T16:06:40.425Z,13.00
2018-04-30T16:09:07.931Z,13.00
2018-04-30T16:11:35.405Z,12.70
2018-04-30T16:14:02.967Z,12.50
2018-04-30T16:16:30.399Z,12.50
2018-04-30T16:18:57.863Z,12.40
2018-04-30T16:21:25.343Z,13.50
2018-04-30T16:23:53.592Z,15.20
2018-04-30T16:26:21.086Z,15.20
2018-04-30T16:28:48.592Z,14.00
2018-04-30T16:31:16.063Z,12.90
2018-04-30T16:33:43.573Z,12.40
2018-04-30T16:36:11.041Z,12.30
2018-04-30T16:38:38.548Z,12.20
2018-04-30T16:41:06.031Z,12.10
2018-04-30T16:43:34.270Z,11.50
2018-04-30T16:46:01.776Z,11.50
2018-04-30T16:48:30.013Z,10.90
2018-04-30T16:50:57.518Z,10.90
2018-04-30T16:53:25.002Z,10.70
2018-04-30T16:55:52.474Z,10.50
2018-04-30T16:58:19.976Z,11.50
2018-04-30T17:00:48.225Z,12.70
2018-04-30T17:03:16.090Z,12.60
2018-04-30T17:05:43.552Z,11.70
2018-04-30T17:08:11.038Z,11.50
2018-04-30T17:10:40.214Z,10.90
2018-04-30T17:13:07.619Z,10.80
2018-04-30T17:15:35.128Z,10.70
2018-04-30T17:18:02.643Z,10.60
2018-04-30T17:20:30.112Z,10.60
2018-04-30T17:22:57.589Z,10.60
2018-04-30T17:25:25.873Z,10.60
2018-04-30T17:27:53.369Z,10.60
2018-04-30T17:30:20.903Z,10.50
2018-04-30T17:32:48.324Z,10.50
2018-04-30T17:35:15.817Z,10.60
2018-04-30T17:37:43.295Z,10.60
2018-04-30T17:40:10.785Z,10.70
2018-04-30T17:42:38.280Z,10.80
2018-04-30T17:45:06.557Z,10.70
2018-04-30T17:47:34.830Z,10.60
2018-04-30T17:50:02.327Z,10.60
2018-04-30T17:52:29.846Z,10.60
2018-04-30T17:54:57.311Z,10.60
2018-04-30T17:57:24.775Z,10.60
2018-04-30T17:59:52.357Z,10.60
2018-04-30T18:02:19.733Z,10.50
2018-04-30T18:04:47.247Z,10.40
2018-04-30T18:07:15.478Z,10.20
2018-04-30T18:09:42.962Z,10.20
2018-04-30T18:12:10.465Z,10.10
2018-04-30T18:14:37.952Z,10.10
2018-04-30T18:17:05.486Z,10.10
2018-04-30T18:19:32.957Z,10.00
2018-04-30T18:22:00.455Z,10.00
2018-04-30T18:24:27.943Z,10.00
2018-04-30T18:26:55.440Z,9.90
2018-04-30T18:29:22.933Z,9.90
2018-04-30T18:31:50.401Z,9.80
2018-04-30T18:34:20.157Z,9.90
2018-04-30T18:36:47.916Z,9.80
2018-04-30T18:39:15.400Z,9.90
2018-04-30T18:41:42.903Z,9.70
2018-04-30T18:44:10.377Z,9.80
2018-04-30T18:46:37.873Z,9.70
2018-04-30T18:49:05.406Z,9.70
2018-04-30T18:51:32.968Z,9.70
2018-04-30T18:54:00.548Z,9.70
2018-04-30T18:56:29.089Z,9.50
2018-04-30T18:58:56.614Z,9.40
2018-04-30T19:01:25.612Z,9.30
2018-04-30T19:03:54.241Z,9.30
2018-04-30T19:06:21.718Z,9.30
2018-04-30T19:08:49.187Z,9.30
2018-04-30T19:11:16.741Z,9.30
2018-04-30T19:13:45.095Z,9.30
2018-04-30T19:16:12.598Z,9.40
2018-04-30T19:18:40.069Z,9.20
2018-04-30T19:21:08.404Z,9.20
2018-04-30T19:23:35.878Z,9.20
2018-04-30T19:26:03.420Z,9.10
2018-04-30T19:28:30.895Z,9.10
2018-04-30T19:30:58.378Z,9.00
2018-04-30T19:33:26.626Z,9.00
2018-04-30T19:35:54.124Z,8.90
2018-04-30T19:38:21.620Z,9.00
2018-04-30T19:40:49.110Z,9.00
2018-04-30T19:43:16.643Z,9.00
2018-04-30T19:45:44.145Z,9.00
2018-04-30T19:48:11.642Z,9.00
2018-04-30T19:50:39.168Z,8.90
2018-04-30T19:53:07.422Z,9.00
2018-04-30T19:55:35.014Z,8.90
2018-04-30T19:58:02.504Z,9.00
2018-04-30T20:00:30.009Z,8.90
2018-04-30T20:02:57.544Z,8.90
2018-04-30T20:05:25.022Z,8.80
2018-04-30T20:07:52.550Z,8.90
2018-04-30T20:10:20.070Z,8.80
2018-04-30T20:12:47.556Z,8.70
2018-04-30T20:15:15.784Z,8.70
2018-04-30T20:17:44.029Z,8.60
2018-04-30T20:20:11.793Z,8.60
2018-04-30T20:22:39.505Z,8.60
2018-04-30T20:25:06.995Z,8.60
2018-04-30T20:27:34.520Z,8.50
2018-04-30T20:30:02.015Z,8.30
2018-04-30T20:32:29.543Z,8.40
2018-04-30T20:34:57.033Z,8.30
2018-04-30T20:37:24.516Z,8.30
2018-04-30T20:39:52.235Z,8.20
2018-04-30T20:42:19.743Z,8.20
2018-04-30T20:44:47.240Z,8.10
2018-04-30T20:47:14.727Z,8.10
2018-04-30T20:49:42.206Z,8.10
2018-04-30T20:52:09.698Z,8.00
2018-04-30T20:54:37.262Z,8.00
2018-04-30T20:57:04.775Z,8.00
2018-04-30T20:59:32.247Z,7.90
2018-04-30T21:02:06.959Z,7.60
2018-04-30T21:04:34.442Z,7.60
2018-04-30T21:07:02.726Z,7.40
2018-04-30T21:09:31.236Z,7.30
2018-04-30T21:11:59.108Z,7.30
2018-04-30T21:14:26.611Z,7.30
2018-04-30T21:16:54.094Z,7.20
2018-04-30T21:19:21.578Z,7.20
2018-04-30T21:21:49.079Z,7.00
2018-04-30T21:24:17.390Z,6.90
2018-04-30T21:26:44.936Z,6.90
2018-04-30T21:29:12.422Z,6.90
2018-04-30T21:31:39.937Z,6.80
2018-04-30T21:34:07.428Z,6.70
2018-04-30T21:36:34.905Z,6.90
2018-04-30T21:39:02.454Z,6.70
2018-04-30T21:41:29.943Z,6.60
2018-04-30T21:43:57.475Z,6.50
2018-04-30T21:46:25.004Z,6.30
2018-04-30T21:48:53.423Z,6.30
2018-04-30T21:51:20.925Z,6.30
2018-04-30T21:53:48.467Z,6.20
2018-04-30T21:56:16.739Z,6.10
2018-04-30T21:58:44.225Z,6.00
2018-04-30T22:01:12.471Z,6.00
2018-04-30T22:03:39.944Z,6.00
2018-04-30T22:06:08.203Z,6.00
2018-04-30T22:08:35.680Z,6.00
2018-04-30T22:11:04.028Z,6.00
2018-04-30T22:13:31.554Z,6.00
2018-04-30T22:15:59.060Z,6.00
2018-04-30T22:18:29.347Z,6.00
2018-04-30T22:20:56.843Z,6.10
2018-04-30T22:23:24.335Z,6.00
2018-04-30T22:25:51.866Z,6.00
2018-04-30T22:28:19.362Z,6.00
2018-04-30T22:30:46.855Z,6.00
2018-04-30T22:33:14.331Z,5.90
2018-04-30T22:35:41.845Z,5.90
2018-04-30T22:38:09.335Z,5.90
2018-04-30T22:40:36.841Z,5.90
2018-04-30T22:43:04.309Z,5.90
2018-04-30T22:45:31.793Z,5.90
2018-04-30T22:47:59.305Z,5.90
2018-04-30T22:50:27.560Z,5.90
2018-04-30T22:52:55.090Z,5.90
2018-04-30T22:55:22.573Z,5.90
2018-04-30T22:57:50.064Z,5.90
2018-04-30T23:00:21.726Z,5.90
2018-04-30T23:02:49.213Z,5.80
2018-04-30T23:05:16.723Z,5.80
2018-04-30T23:07:44.213Z,5.70
2018-04-30T23:10:11.687Z,5.70
2018-04-30T23:12:39.169Z,5.90
2018-04-30T23:15:06.661Z,5.80
2018-04-30T23:17:34.145Z,5.80
2018-04-30T23:20:01.635Z,5.70
2018-04-30T23:22:37.980Z,5.70
2018-04-30T23:25:05.463Z,5.80
2018-04-30T23:27:32.958Z,5.70
2018-04-30T23:30:00.464Z,5.70
2018-04-30T23:32:27.954Z,5.70
2018-04-30T23:34:56.862Z,5.60
2018-04-30T23:37:25.175Z,5.60
2018-04-30T23:39:52.662Z,5.60
2018-04-30T23:42:20.225Z,5.50
2018-04-30T23:44:47.712Z,5.50
2018-04-30T23:47:15.961Z,5.20
2018-04-30T23:49:43.457Z,5.20
2018-04-30T23:52:10.935Z,5.20
2018-04-30T23:54:38.406Z,5.10
2018-04-30T23:57:06.664Z,5.20
2018-04-30T23:59:34.151Z,5.10
